sensor_id;sensor_type;location;lat;lon;timestamp;temperature;humidity
54946;DHT22;40846;44.788;20.486;2023-03-15T17:11:53;128.70;2252.80
54946;DHT22;40846;44.788;20.486;2023-03-15T17:14:26;128.60;2252.80
54946;DHT22;40846;44.788;20.486;2023-03-15T17:16:54;128.50;2252.80
54946;DHT22;40846;44.788;20.486;2023-03-15T17:19:19;128.40;2252.80
54946;DHT22;40846;44.788;20.486;2023-03-15T17:21:45;128.20;2252.80
54946;DHT22;40846;44.788;20.486;2023-03-15T17:24:13;128.20;2252.80
54946;DHT22;40846;44.788;20.486;2023-03-15T17:26:39;128.40;2252.80
54946;DHT22;40846;44.788;20.486;2023-03-15T17:29:06;128.20;2252.80
54946;DHT22;40846;44.788;20.486;2023-03-15T17:31:32;128.10;2252.80
54946;DHT22;40846;44.788;20.486;2023-03-15T17:36:28;128.30;2252.80
54946;DHT22;40846;44.788;20.486;2023-03-15T17:38:56;128.20;2252.80
54946;DHT22;40846;44.788;20.486;2023-03-15T17:43:48;128.00;2252.80
54946;DHT22;40846;44.788;20.486;2023-03-15T17:46:15;128.10;2252.80
54946;DHT22;40846;44.788;20.486;2023-03-15T17:48:41;128.00;2252.80
54946;DHT22;40846;44.788;20.486;2023-03-15T18:05:51;102.90;2227.20
54946;DHT22;40846;44.788;20.486;2023-03-15T18:08:17;102.90;2227.20
54946;DHT22;40846;44.788;20.486;2023-03-15T18:10:44;102.80;2227.20
54946;DHT22;40846;44.788;20.486;2023-03-15T18:13:11;102.90;2227.20
54946;DHT22;40846;44.788;20.486;2023-03-15T18:15:37;102.80;2227.20
54946;DHT22;40846;44.788;20.486;2023-03-15T18:18:03;103.00;2227.20
54946;DHT22;40846;44.788;20.486;2023-03-15T18:20:29;103.00;2227.20
54946;DHT22;40846;44.788;20.486;2023-03-15T18:22:55;103.00;2227.20
54946;DHT22;40846;44.788;20.486;2023-03-15T18:25:26;103.00;2227.20
54946;DHT22;40846;44.788;20.486;2023-03-15T18:28:01;103.10;2227.20
54946;DHT22;40846;44.788;20.486;2023-03-15T18:30:28;103.10;2227.20
54946;DHT22;40846;44.788;20.486;2023-03-15T18:33:00;103.30;2227.20
54946;DHT22;40846;44.788;20.486;2023-03-15T18:35:27;102.90;2227.20
54946;DHT22;40846;44.788;20.486;2023-03-15T18:37:52;102.90;2227.20
54946;DHT22;40846;44.788;20.486;2023-03-15T18:40:20;102.80;2227.20
54946;DHT22;40846;44.788;20.486;2023-03-15T18:42:46;102.80;2227.20
54946;DHT22;40846;44.788;20.486;2023-03-15T18:45:19;103.00;2227.20
54946;DHT22;40846;44.788;20.486;2023-03-15T18:47:45;103.00;2227.20
54946;DHT22;40846;44.788;20.486;2023-03-15T18:50:12;102.90;2227.20
54946;DHT22;40846;44.788;20.486;2023-03-15T18:52:56;103.00;2227.20
54946;DHT22;40846;44.788;20.486;2023-03-15T18:55:22;103.00;2227.20
54946;DHT22;40846;44.788;20.486;2023-03-15T18:57:48;103.00;2227.20
54946;DHT22;40846;44.788;20.486;2023-03-15T19:00:22;103.00;2227.20
54946;DHT22;40846;44.788;20.486;2023-03-15T19:02:50;103.20;2227.20
54946;DHT22;40846;44.788;20.486;2023-03-15T19:05:16;103.10;2227.20
54946;DHT22;40846;44.788;20.486;2023-03-15T19:07:45;102.80;2227.20
54946;DHT22;40846;44.788;20.486;2023-03-15T19:10:13;103.00;2227.20
54946;DHT22;40846;44.788;20.486;2023-03-15T19:12:39;103.00;2227.20
54946;DHT22;40846;44.788;20.486;2023-03-15T19:15:05;103.10;2227.20
54946;DHT22;40846;44.788;20.486;2023-03-15T19:17:31;103.00;2227.20
54946;DHT22;40846;44.788;20.486;2023-03-15T19:19:57;102.90;2227.20
54946;DHT22;40846;44.788;20.486;2023-03-15T19:22:23;102.80;2227.20
54946;DHT22;40846;44.788;20.486;2023-03-15T19:24:49;102.70;2227.20
54946;DHT22;40846;44.788;20.486;2023-03-15T19:27:15;102.70;2227.20
54946;DHT22;40846;44.788;20.486;2023-03-15T19:29:45;102.50;2227.20
54946;DHT22;40846;44.788;20.486;2023-03-15T19:32:10;102.50;2227.20
54946;DHT22;40846;44.788;20.486;2023-03-15T19:34:36;102.70;2227.20
54946;DHT22;40846;44.788;20.486;2023-03-15T19:37:02;102.70;2227.20
54946;DHT22;40846;44.788;20.486;2023-03-15T19:39:28;102.80;2227.20
54946;DHT22;40846;44.788;20.486;2023-03-15T19:41:53;102.80;2227.20
54946;DHT22;40846;44.788;20.486;2023-03-15T19:44:19;102.70;2227.20
54946;DHT22;40846;44.788;20.486;2023-03-15T19:46:46;103.00;2227.20
54946;DHT22;40846;44.788;20.486;2023-03-15T19:49:12;102.70;2227.20
54946;DHT22;40846;44.788;20.486;2023-03-15T19:51:38;102.70;2227.20
54946;DHT22;40846;44.788;20.486;2023-03-15T19:54:03;102.70;2227.20
54946;DHT22;40846;44.788;20.486;2023-03-15T19:56:30;102.70;2227.20
54946;DHT22;40846;44.788;20.486;2023-03-15T19:58:58;102.60;2227.20
54946;DHT22;40846;44.788;20.486;2023-03-15T20:01:24;102.90;2227.20
54946;DHT22;40846;44.788;20.486;2023-03-15T20:15:59;102.60;2227.20
54946;DHT22;40846;44.788;20.486;2023-03-15T20:42:46;103.00;2227.20
54946;DHT22;40846;44.788;20.486;2023-03-15T20:45:11;102.70;2227.20
